Pagina principală
METAR-TAF:

METAR-TAF

Aeroporturi :

Pauls Valley, Oklahoma, Statele Unite ale Americii

Latitudine: 34-42-40N, longitudine: 097-13-24W, elevație: 295 m

Observații meteo curente

Raportul a fost făcut în urmă cu 31 de minute, la 22:15 UTC
Vânt 10 kt de la Sud/Sud-vest
Temperatură 34°C
Umiditate 47%
Presiune 1015 hPa
Vizibilitate: 16.1 km
Nori împrăștiați la o înălțime de 6500 picior

METAR: KPVJ 222215Z AUTO 20010KT 10SM SCT065 34/21 A2996 RMK AO2 T03360205

Ora: 17:46 (22:46 UTC)


TAF: lipsă

Observații și prognoze meteo pentru peste 4.000 de aeroporturi (rapoarte METAR și TAF).

Stațiile disponibile sunt reprezentate pe hartă prin puncte galbene și roșii.

Țineți indicatorul mouse-ului pe punctul dorit pentru a vedea denumirea stației.

Apoi, faceți clic pentru a vedea observațiile și prognozele meteorologice.

Pentru a schimba harta: Pentru mărire, faceți clic pe butoanele verzi cu cruce neagră; pentru micșorare, pe butonul verde cu o liniuță; pentru hărți învecinate, pe săgețile verzi.


METAR-TAF: